createdAt,value
2017-12-20T00:02:41.091Z,1025.34
2017-12-20T00:07:37.688Z,1025.33
2017-12-20T00:12:33.228Z,1025.26
2017-12-20T00:17:28.960Z,1025.30
2017-12-20T00:22:25.667Z,1025.19
2017-12-20T00:27:21.045Z,1025.32
2017-12-20T00:32:16.452Z,1025.33
2017-12-20T00:37:12.329Z,1025.28
2017-12-20T00:42:07.951Z,1025.31
2017-12-20T00:47:03.782Z,1025.25
2017-12-20T00:51:59.573Z,1025.30
2017-12-20T00:56:55.559Z,1025.38
2017-12-20T01:01:52.309Z,1025.29
2017-12-20T01:06:49.554Z,1025.21
2017-12-20T01:11:45.004Z,1025.21
2017-12-20T01:16:40.829Z,1025.25
2017-12-20T01:21:36.837Z,1025.29
2017-12-20T01:26:32.467Z,1025.41
2017-12-20T01:31:30.194Z,1025.33
2017-12-20T01:36:25.951Z,1025.40
2017-12-20T01:41:21.596Z,1025.29
2017-12-20T01:46:17.618Z,1025.31
2017-12-20T01:51:13.248Z,1025.24
2017-12-20T01:56:10.007Z,1025.20
2017-12-20T02:01:05.312Z,1025.28
2017-12-20T02:06:00.961Z,1025.43
2017-12-20T02:10:56.580Z,1025.34
2017-12-20T02:15:53.293Z,1025.35
2017-12-20T02:20:49.836Z,1025.23
2017-12-20T02:25:46.917Z,1025.19
2017-12-20T02:30:42.184Z,1025.13
2017-12-20T02:35:38.937Z,1025.25
2017-12-20T02:40:34.321Z,1025.24
2017-12-20T02:45:29.996Z,1025.21
2017-12-20T02:50:26.934Z,1025.25
2017-12-20T02:55:21.928Z,1025.20
2017-12-20T03:00:17.465Z,1025.15
2017-12-20T03:05:13.229Z,1024.95
2017-12-20T03:10:09.485Z,1025.00
2017-12-20T03:15:05.595Z,1024.88
2017-12-20T03:20:01.399Z,1024.96
2017-12-20T03:24:57.186Z,1025.09
2017-12-20T03:29:52.984Z,1025.04
2017-12-20T03:34:48.915Z,1024.97
2017-12-20T03:39:44.736Z,1025.01
2017-12-20T03:44:40.432Z,1024.98
2017-12-20T03:49:36.782Z,1025.01
2017-12-20T03:54:32.207Z,1025.06
2017-12-20T03:59:27.896Z,1025.08
2017-12-20T04:04:24.608Z,1025.03
2017-12-20T04:09:20.982Z,1025.17
2017-12-20T04:14:17.560Z,1025.17
2017-12-20T04:19:12.894Z,1025.20
2017-12-20T04:24:09.684Z,1025.22
2017-12-20T04:29:05.098Z,1025.16
2017-12-20T04:34:01.746Z,1025.24
2017-12-20T04:38:57.146Z,1025.24
2017-12-20T04:43:53.796Z,1025.19
2017-12-20T04:48:50.367Z,1025.27
2017-12-20T04:53:45.797Z,1025.27
2017-12-20T04:58:41.634Z,1025.20
2017-12-20T05:03:37.411Z,1025.29
2017-12-20T05:08:33.990Z,1025.29
2017-12-20T05:13:29.442Z,1025.24
2017-12-20T05:18:25.275Z,1025.23
2017-12-20T05:23:21.020Z,1025.09
2017-12-20T05:28:16.994Z,1025.13
2017-12-20T05:33:12.449Z,1025.13
2017-12-20T05:38:08.620Z,1025.03
2017-12-20T05:43:05.510Z,1025.02
2017-12-20T05:48:00.684Z,1025.12
2017-12-20T05:52:56.741Z,1025.13
2017-12-20T05:57:52.446Z,1025.13
2017-12-20T06:02:48.388Z,1025.20
2017-12-20T06:07:44.425Z,1025.26
2017-12-20T06:12:40.182Z,1025.23
2017-12-20T06:17:35.971Z,1025.18
2017-12-20T06:22:31.690Z,1025.24
2017-12-20T06:27:27.628Z,1025.27
2017-12-20T06:32:23.458Z,1025.23
2017-12-20T06:37:20.121Z,1025.30
2017-12-20T06:42:15.571Z,1025.28
2017-12-20T06:47:11.293Z,1025.31
2017-12-20T06:52:07.123Z,1025.29
2017-12-20T06:57:04.830Z,1025.43
2017-12-20T07:02:01.253Z,1025.39
2017-12-20T07:06:56.695Z,1025.48
2017-12-20T07:11:52.375Z,1025.74
2017-12-20T07:16:48.235Z,1025.65
2017-12-20T07:21:43.890Z,1025.70
2017-12-20T07:26:39.655Z,1025.66
2017-12-20T07:31:35.692Z,1025.76
2017-12-20T07:36:31.502Z,1025.74
2017-12-20T07:41:27.433Z,1025.70
2017-12-20T07:46:22.812Z,1025.67
2017-12-20T07:51:18.520Z,1025.70
2017-12-20T07:56:15.452Z,1025.71
2017-12-20T08:01:10.685Z,1025.62
2017-12-20T08:06:06.476Z,1025.71
2017-12-20T08:11:02.336Z,1025.73
2017-12-20T08:15:59.082Z,1025.84
2017-12-20T08:20:54.298Z,1025.82
2017-12-20T08:25:49.922Z,1026.06
2017-12-20T08:30:45.880Z,1026.10
2017-12-20T08:35:42.582Z,1026.26
2017-12-20T08:40:39.365Z,1026.23
2017-12-20T08:45:34.794Z,1026.30
2017-12-20T08:50:31.590Z,1026.37
2017-12-20T08:55:27.249Z,1026.41
2017-12-20T09:00:22.996Z,1026.44
2017-12-20T09:05:18.891Z,1026.45
2017-12-20T09:10:14.795Z,1026.34
2017-12-20T09:15:10.524Z,1026.37
2017-12-20T09:20:06.924Z,1026.46
2017-12-20T09:25:02.861Z,1026.49
2017-12-20T09:29:58.743Z,1026.52
2017-12-20T09:34:55.371Z,1026.58
2017-12-20T09:39:52.222Z,1026.64
2017-12-20T09:44:47.360Z,1026.69
2017-12-20T09:49:44.066Z,1026.63
2017-12-20T09:54:39.867Z,1026.69
2017-12-20T09:59:35.969Z,1026.69
2017-12-20T10:04:32.924Z,1026.61
2017-12-20T10:09:29.653Z,1026.56
2017-12-20T10:14:25.119Z,1026.71
2017-12-20T10:19:20.948Z,1026.75
2017-12-20T10:24:16.894Z,1026.77
2017-12-20T10:29:12.583Z,1026.68
2017-12-20T10:34:10.388Z,1026.70
2017-12-20T10:39:05.586Z,1026.71
2017-12-20T10:44:01.408Z,1026.71
2017-12-20T10:48:57.368Z,1026.63
2017-12-20T10:53:54.122Z,1026.65
2017-12-20T10:58:49.697Z,1026.73
2017-12-20T11:03:45.517Z,1026.65
2017-12-20T11:08:41.346Z,1026.69
2017-12-20T11:13:37.350Z,1026.57
2017-12-20T11:18:34.236Z,1026.45
2017-12-20T11:23:30.586Z,1026.45
2017-12-20T11:28:26.143Z,1026.39
2017-12-20T11:33:21.986Z,1026.45
2017-12-20T11:38:17.679Z,1026.37
2017-12-20T11:43:13.522Z,1026.30
2017-12-20T11:48:10.339Z,1026.26
2017-12-20T11:53:07.175Z,1026.30
2017-12-20T11:58:03.988Z,1026.18
2017-12-20T12:02:59.376Z,1026.17
2017-12-20T12:07:54.657Z,1026.13
2017-12-20T12:12:50.374Z,1025.99
2017-12-20T12:17:46.146Z,1026.11
2017-12-20T12:22:41.874Z,1026.22
2017-12-20T12:27:37.537Z,1026.15
2017-12-20T12:32:34.179Z,1026.23
2017-12-20T12:37:29.599Z,1026.06
2017-12-20T12:42:25.213Z,1026.10
2017-12-20T12:47:20.738Z,1026.19
2017-12-20T12:52:16.497Z,1026.15
2017-12-20T12:57:13.073Z,1026.10
2017-12-20T13:02:09.553Z,1026.14
2017-12-20T13:07:05.054Z,1026.06
2017-12-20T13:12:00.967Z,1026.02
2017-12-20T13:16:56.678Z,1025.98
2017-12-20T13:21:53.305Z,1025.97
2017-12-20T13:26:48.804Z,1025.99
2017-12-20T13:31:44.527Z,1026.06
2017-12-20T13:36:40.594Z,1026.05
2017-12-20T13:41:37.482Z,1026.09
2017-12-20T13:46:33.649Z,1026.14
2017-12-20T13:51:29.303Z,1026.06
2017-12-20T13:56:24.664Z,1025.94
2017-12-20T14:01:20.401Z,1026.06
2017-12-20T14:06:16.224Z,1026.18
2017-12-20T14:11:13.151Z,1026.13
2017-12-20T14:16:08.742Z,1026.06
2017-12-20T14:21:04.614Z,1026.06
2017-12-20T14:26:01.429Z,1025.93
2017-12-20T14:30:57.109Z,1026.14
2017-12-20T14:35:54.250Z,1026.07
2017-12-20T14:40:49.450Z,1026.23
2017-12-20T14:45:46.067Z,1026.39
2017-12-20T14:50:41.216Z,1026.32
2017-12-20T14:55:36.690Z,1026.30
2017-12-20T15:00:32.380Z,1026.28
2017-12-20T15:05:27.906Z,1026.14
2017-12-20T15:10:23.657Z,1026.17
2017-12-20T15:15:20.847Z,1026.25
2017-12-20T15:20:16.474Z,1026.30
2017-12-20T15:25:12.302Z,1026.33
2017-12-20T15:30:08.064Z,1026.27
2017-12-20T15:35:03.749Z,1026.31
2017-12-20T15:40:00.524Z,1026.52
2017-12-20T15:44:55.677Z,1026.65
2017-12-20T15:49:51.797Z,1026.75
2017-12-20T15:54:47.505Z,1026.79
2017-12-20T15:59:43.380Z,1026.74
2017-12-20T16:04:40.183Z,1026.73
2017-12-20T16:09:37.158Z,1026.79
2017-12-20T16:14:32.950Z,1026.72
2017-12-20T16:19:28.810Z,1026.66
2017-12-20T16:24:25.868Z,1026.58
2017-12-20T16:29:22.861Z,1026.68
2017-12-20T16:34:18.348Z,1026.66
2017-12-20T16:39:14.091Z,1026.60
2017-12-20T16:44:09.847Z,1026.61
2017-12-20T16:49:05.997Z,1026.63
2017-12-20T16:54:02.815Z,1026.64
2017-12-20T16:58:58.446Z,1026.52
2017-12-20T17:03:55.644Z,1026.56
2017-12-20T17:08:51.758Z,1026.58
2017-12-20T17:13:47.493Z,1026.65
2017-12-20T17:18:44.409Z,1026.68
2017-12-20T17:23:39.838Z,1026.74
2017-12-20T17:28:35.535Z,1026.63
2017-12-20T17:33:32.010Z,1026.67
2017-12-20T17:38:28.492Z,1026.72
2017-12-20T17:43:24.967Z,1026.79
2017-12-20T17:48:20.470Z,1026.92
2017-12-20T17:53:16.096Z,1026.99
2017-12-20T17:58:12.936Z,1027.06
2017-12-20T18:03:08.371Z,1027.22
2017-12-20T18:08:05.861Z,1027.15
2017-12-20T18:13:01.220Z,1027.29
2017-12-20T18:17:57.315Z,1027.26
2017-12-20T18:22:54.091Z,1027.32
2017-12-20T18:27:50.157Z,1027.30
2017-12-20T18:32:45.850Z,1027.41
2017-12-20T18:37:42.590Z,1027.23
2017-12-20T18:42:38.029Z,1027.22
2017-12-20T18:47:33.769Z,1027.15
2017-12-20T18:52:30.682Z,1027.31
2017-12-20T18:57:26.111Z,1027.13
2017-12-20T19:02:21.992Z,1027.12
2017-12-20T19:07:17.553Z,1027.10
2017-12-20T19:12:13.816Z,1026.99
2017-12-20T19:17:09.974Z,1027.09
2017-12-20T19:22:05.552Z,1027.07
2017-12-20T19:27:01.232Z,1026.92
2017-12-20T19:31:57.182Z,1026.94
2017-12-20T19:36:53.387Z,1026.92
2017-12-20T19:41:49.347Z,1027.06
2017-12-20T19:46:45.088Z,1027.15
2017-12-20T19:51:41.488Z,1027.08
2017-12-20T19:56:38.195Z,1027.10
2017-12-20T20:01:33.557Z,1026.80
2017-12-20T20:06:29.730Z,1026.84
2017-12-20T20:11:26.130Z,1027.00
2017-12-20T20:16:21.563Z,1027.08
2017-12-20T20:21:17.349Z,1027.06
2017-12-20T20:26:13.191Z,1027.06
2017-12-20T20:31:09.381Z,1027.04
2017-12-20T20:36:04.940Z,1027.13
2017-12-20T20:41:01.869Z,1027.25
2017-12-20T20:45:57.559Z,1027.19
2017-12-20T20:50:53.414Z,1027.19
2017-12-20T20:55:49.171Z,1027.09
2017-12-20T21:00:45.459Z,1026.87
2017-12-20T21:05:41.512Z,1026.70
2017-12-20T21:10:37.130Z,1026.57
2017-12-20T21:15:34.280Z,1026.49
2017-12-20T21:20:30.149Z,1026.88
2017-12-20T21:25:25.916Z,1026.98
2017-12-20T21:30:22.027Z,1026.91
2017-12-20T21:35:17.768Z,1026.93
2017-12-20T21:40:13.865Z,1026.99
2017-12-20T21:45:09.667Z,1026.85
2017-12-20T21:50:06.035Z,1026.69
2017-12-20T21:55:01.771Z,1026.72
2017-12-20T21:59:57.404Z,1026.88
2017-12-20T22:04:53.192Z,1026.91
2017-12-20T22:09:49.714Z,1026.87
2017-12-20T22:14:45.321Z,1026.88
2017-12-20T22:19:41.243Z,1026.79
2017-12-20T22:24:36.823Z,1026.68
2017-12-20T22:29:32.441Z,1026.68
2017-12-20T22:34:29.247Z,1026.59
2017-12-20T22:39:25.184Z,1026.66
2017-12-20T22:44:20.869Z,1026.87
2017-12-20T22:49:16.645Z,1026.86
2017-12-20T22:54:12.315Z,1026.84
2017-12-20T22:59:08.082Z,1026.79
2017-12-20T23:04:04.115Z,1026.81
2017-12-20T23:09:00.189Z,1026.86
2017-12-20T23:13:56.017Z,1026.85
2017-12-20T23:18:51.872Z,1026.91
2017-12-20T23:23:48.330Z,1026.72
2017-12-20T23:28:43.946Z,1026.86
2017-12-20T23:33:39.567Z,1026.79
2017-12-20T23:38:35.241Z,1026.90
2017-12-20T23:43:30.831Z,1026.88
2017-12-20T23:48:27.811Z,1026.92
2017-12-20T23:53:23.043Z,1026.88
2017-12-20T23:58:18.978Z,1026.95
